createdAt,value
2023-03-29T08:04:22.026Z,101549.00
2023-03-29T08:06:38.734Z,101549.00
2023-03-29T08:08:41.322Z,101561.53
2023-03-29T08:10:44.784Z,101555.97
2023-03-29T08:12:50.368Z,101558.63
2023-03-29T08:14:54.254Z,101553.25
2023-03-29T08:16:57.350Z,101559.41
2023-03-29T08:19:00.895Z,101525.53
2023-03-29T08:21:05.442Z,101521.41
2023-03-29T08:23:08.417Z,101513.38
2023-03-29T08:25:12.977Z,101515.09
2023-03-29T08:27:17.452Z,101506.31
2023-03-29T08:29:19.860Z,101533.38
2023-03-29T08:31:22.610Z,101530.31
2023-03-29T08:33:25.025Z,101544.41
2023-03-29T08:35:27.892Z,101548.75
2023-03-29T08:37:32.853Z,101555.19
2023-03-29T08:39:36.088Z,101555.22
2023-03-29T08:42:04.994Z,101551.16
2023-03-29T08:44:20.622Z,101543.28
2023-03-29T08:46:44.033Z,101553.16
2023-03-29T08:49:14.510Z,101544.44
2023-03-29T08:51:30.694Z,101548.75
2023-03-29T08:53:46.965Z,101548.25
2023-03-29T08:55:52.009Z,101538.72
2023-03-29T08:57:57.265Z,101531.28
2023-03-29T09:00:05.572Z,101526.00
2023-03-29T09:02:17.993Z,101519.78
2023-03-29T09:04:27.253Z,101514.22
2023-03-29T09:06:30.124Z,101529.22
2023-03-29T09:08:38.036Z,101518.13
2023-03-29T09:11:05.036Z,101518.19
2023-03-29T09:13:28.449Z,101514.69
2023-03-29T09:15:44.378Z,101508.81
2023-03-29T09:17:53.861Z,101497.69
2023-03-29T09:20:11.459Z,101498.56
2023-03-29T09:22:16.609Z,101498.41
2023-03-29T09:24:33.838Z,101495.78
2023-03-29T09:26:46.225Z,101484.66
2023-03-29T09:29:30.651Z,101495.00
2023-03-29T09:31:39.154Z,101474.63
2023-03-29T09:33:47.834Z,101479.47
2023-03-29T09:36:03.016Z,101477.56
2023-03-29T09:38:11.064Z,101478.63
2023-03-29T09:40:22.456Z,101476.81
2023-03-29T09:42:29.211Z,101480.34
2023-03-29T09:44:37.850Z,101479.19
2023-03-29T09:46:44.244Z,101473.00
2023-03-29T09:48:49.469Z,101475.69
2023-03-29T09:50:53.150Z,101472.78
2023-03-29T09:52:55.866Z,101469.38
2023-03-29T09:55:02.082Z,101457.25
2023-03-29T09:57:06.916Z,101463.41
2023-03-29T09:59:12.278Z,101464.13
2023-03-29T10:01:17.496Z,101455.97
2023-03-29T10:03:29.943Z,101452.06
2023-03-29T10:05:37.302Z,101441.72
2023-03-29T10:07:45.666Z,101457.41
2023-03-29T10:09:51.928Z,101451.75
2023-03-29T10:11:58.376Z,101454.53
2023-03-29T10:14:04.136Z,101447.75
2023-03-29T10:16:17.225Z,101436.06
2023-03-29T10:18:19.622Z,101443.34
2023-03-29T10:20:24.665Z,101435.97
2023-03-29T10:22:32.856Z,101427.56
2023-03-29T10:24:35.258Z,101430.16
2023-03-29T10:26:39.070Z,101424.84
2023-03-29T10:28:41.860Z,101421.97
2023-03-29T10:30:48.698Z,101421.41
2023-03-29T10:32:59.850Z,101418.44
2023-03-29T10:35:10.879Z,101415.22
2023-03-29T10:37:16.612Z,101406.50
2023-03-29T10:39:19.481Z,101403.25
2023-03-29T10:41:23.221Z,101409.81
2023-03-29T10:43:37.385Z,101403.41
2023-03-29T10:45:41.379Z,101397.53
2023-03-29T10:47:46.017Z,101392.44
2023-03-29T10:49:56.844Z,101390.97
2023-03-29T10:51:59.682Z,101394.22
2023-03-29T10:54:04.386Z,101382.94
2023-03-29T10:56:12.889Z,101391.12
2023-03-29T10:58:15.470Z,101392.00
2023-03-29T11:00:27.389Z,101403.28
2023-03-29T11:02:48.862Z,101388.38
2023-03-29T11:05:11.031Z,101388.38
2023-03-29T11:07:31.607Z,101382.69
2023-03-29T11:09:49.909Z,101375.87
2023-03-29T11:12:16.007Z,101386.94
2023-03-29T11:14:47.063Z,101392.09
2023-03-29T11:17:12.871Z,101377.59
2023-03-29T11:19:37.548Z,101379.66
2023-03-29T11:21:52.299Z,101396.88
2023-03-29T11:24:25.289Z,101396.66
2023-03-29T11:26:44.454Z,101395.09
2023-03-29T11:29:11.558Z,101403.81
2023-03-29T11:31:28.982Z,101423.37
2023-03-29T11:34:12.319Z,101423.34
2023-03-29T11:36:32.076Z,101417.66
2023-03-29T11:38:48.336Z,101429.84
2023-03-29T11:40:57.735Z,101420.50
2023-03-29T11:43:05.403Z,101406.34
2023-03-29T11:45:16.020Z,101409.31
2023-03-29T11:47:22.768Z,101391.25
2023-03-29T11:49:32.359Z,101400.81
2023-03-29T11:51:41.469Z,101402.44
2023-03-29T11:54:05.615Z,101408.25
2023-03-29T11:56:16.934Z,101419.97
2023-03-29T11:58:30.972Z,101397.50
2023-03-29T12:00:59.739Z,101381.91
2023-03-29T12:03:21.051Z,101362.31
2023-03-29T12:05:27.464Z,101366.88
2023-03-29T12:07:39.989Z,101364.56
2023-03-29T12:09:50.048Z,101369.59
2023-03-29T12:12:16.685Z,101363.66
2023-03-29T12:14:38.371Z,101358.91
2023-03-29T12:16:49.711Z,101342.66
2023-03-29T12:18:56.431Z,101340.31
2023-03-29T12:21:08.738Z,101331.69
2023-03-29T12:23:15.813Z,101329.69
2023-03-29T12:25:23.827Z,101334.13
2023-03-29T12:27:32.015Z,101308.25
2023-03-29T12:29:37.506Z,101314.72
2023-03-29T12:32:02.830Z,101305.19
2023-03-29T12:34:37.494Z,101304.97
2023-03-29T12:37:07.905Z,101300.22
2023-03-29T12:39:17.827Z,101298.66
2023-03-29T12:41:23.871Z,101280.53
2023-03-29T12:43:38.739Z,101271.34
2023-03-29T12:45:48.825Z,101266.41
2023-03-29T12:47:52.119Z,101263.75
2023-03-29T12:49:58.420Z,101259.34
2023-03-29T12:52:03.639Z,101257.81
2023-03-29T12:54:08.609Z,101254.72
2023-03-29T12:56:19.443Z,101271.47
2023-03-29T12:58:27.840Z,101272.06
2023-03-29T13:00:42.736Z,101275.56
2023-03-29T13:02:45.890Z,101272.84
2023-03-29T13:04:51.331Z,101276.63
2023-03-29T13:07:03.015Z,101263.72
2023-03-29T13:09:30.959Z,101265.22
2023-03-29T13:11:37.547Z,101260.53
2023-03-29T13:13:41.863Z,101244.56
2023-03-29T13:15:46.175Z,101247.72
2023-03-29T13:18:11.794Z,101241.09
2023-03-29T13:20:20.542Z,101236.44
2023-03-29T13:22:45.488Z,101246.97
2023-03-29T13:24:50.878Z,101230.22
2023-03-29T13:26:57.683Z,101224.31
2023-03-29T13:29:22.037Z,101227.00
2023-03-29T13:31:41.797Z,101216.66
2023-03-29T13:33:50.119Z,101210.03
2023-03-29T13:36:06.195Z,101205.31
2023-03-29T13:38:23.695Z,101203.25
2023-03-29T13:40:44.229Z,101196.06
2023-03-29T13:42:58.499Z,101183.09
2023-03-29T13:45:10.515Z,101179.94
2023-03-29T13:47:31.329Z,101182.56
2023-03-29T13:49:35.588Z,101190.94
2023-03-29T13:51:41.113Z,101192.34
2023-03-29T13:53:51.890Z,101189.22
2023-03-29T13:55:55.144Z,101185.63
2023-03-29T13:58:15.847Z,101185.47
2023-03-29T14:00:23.600Z,101186.56
2023-03-29T14:02:36.463Z,101195.41
2023-03-29T14:04:46.827Z,101189.56
2023-03-29T14:06:54.084Z,101198.91
2023-03-29T14:08:57.002Z,101190.59
2023-03-29T14:11:05.568Z,101184.72
2023-03-29T14:13:13.698Z,101185.59
2023-03-29T14:15:25.882Z,101175.97
2023-03-29T14:17:29.147Z,101161.56
2023-03-29T14:19:35.614Z,101165.19
2023-03-29T14:21:38.352Z,101162.50
2023-03-29T14:23:44.624Z,101153.03
2023-03-29T14:25:47.556Z,101154.63
2023-03-29T14:27:50.264Z,101144.91
2023-03-29T14:29:53.281Z,101152.84
2023-03-29T14:31:55.725Z,101146.56
2023-03-29T14:34:04.328Z,101141.91
2023-03-29T14:36:07.639Z,101142.41
2023-03-29T14:38:12.888Z,101145.59
2023-03-29T14:40:19.527Z,101142.78
2023-03-29T14:42:26.942Z,101144.59
2023-03-29T14:44:33.132Z,101142.63
2023-03-29T14:46:36.685Z,101139.06
2023-03-29T14:48:39.472Z,101139.41
2023-03-29T14:50:43.119Z,101128.94
2023-03-29T14:52:48.300Z,101122.91
2023-03-29T14:54:56.668Z,101124.81
2023-03-29T14:56:59.473Z,101121.09
2023-03-29T14:59:04.929Z,101117.34
2023-03-29T15:01:19.197Z,101110.88
2023-03-29T15:03:28.050Z,101111.31
2023-03-29T15:05:38.564Z,101103.75
2023-03-29T15:07:43.559Z,101110.25
2023-03-29T15:09:46.100Z,101113.06
2023-03-29T15:11:53.798Z,101110.19
2023-03-29T15:14:13.978Z,101110.00
2023-03-29T15:16:20.517Z,101103.72
2023-03-29T15:18:51.613Z,101098.44
2023-03-29T15:20:54.615Z,101099.50
2023-03-29T15:23:04.129Z,101096.75
2023-03-29T15:25:29.383Z,101093.16
2023-03-29T15:27:41.846Z,101096.56
2023-03-29T15:29:46.901Z,101091.41
2023-03-29T15:31:59.040Z,101091.44
2023-03-29T15:34:26.155Z,101089.78
2023-03-29T15:36:28.544Z,101090.47
2023-03-29T15:38:40.830Z,101090.75
2023-03-29T15:40:46.752Z,101089.94
2023-03-29T15:42:50.242Z,101091.81
2023-03-29T15:44:56.245Z,101087.56
2023-03-29T15:46:59.932Z,101079.88
2023-03-29T15:49:02.978Z,101078.19
2023-03-29T15:51:06.930Z,101068.28
2023-03-29T15:53:15.167Z,101073.87
2023-03-29T15:55:18.605Z,101068.63
2023-03-29T15:57:22.016Z,101075.94
2023-03-29T15:59:24.680Z,101064.53
2023-03-29T16:01:38.957Z,101060.50
2023-03-29T16:03:41.828Z,101055.22
2023-03-29T16:05:45.642Z,101058.31
2023-03-29T16:07:48.102Z,101059.31
2023-03-29T16:09:50.992Z,101059.72
2023-03-29T16:11:53.264Z,101054.28
2023-03-29T16:13:56.638Z,101050.75
2023-03-29T16:15:59.398Z,101044.22
2023-03-29T16:18:01.947Z,101049.47
2023-03-29T16:20:05.558Z,101033.31
2023-03-29T16:22:08.423Z,101038.06
2023-03-29T16:24:25.846Z,101039.53
2023-03-29T16:26:30.354Z,101038.75
2023-03-29T16:28:33.094Z,101040.87
2023-03-29T16:30:37.376Z,101044.16
2023-03-29T16:32:39.876Z,101034.03
2023-03-29T16:34:43.351Z,101030.06
2023-03-29T16:36:49.220Z,101022.12
2023-03-29T16:38:51.724Z,101019.41
2023-03-29T16:40:54.978Z,101023.16
2023-03-29T16:42:57.436Z,101021.53
2023-03-29T16:45:02.260Z,101017.53
2023-03-29T16:47:05.222Z,101027.06
2023-03-29T16:49:08.104Z,101020.31
2023-03-29T16:51:11.333Z,101022.44
2023-03-29T16:53:14.051Z,101022.47
2023-03-29T16:55:18.997Z,101027.53
2023-03-29T16:57:21.575Z,101023.34
2023-03-29T16:59:24.328Z,101030.94
2023-03-29T17:01:28.011Z,101022.44
2023-03-29T17:03:30.469Z,101026.38
2023-03-29T17:05:38.032Z,101020.72
2023-03-29T17:07:40.872Z,101024.72
2023-03-29T17:09:46.002Z,101014.53
2023-03-29T17:11:49.235Z,101017.19
2023-03-29T17:13:51.764Z,101012.91
2023-03-29T17:15:55.655Z,101007.38
2023-03-29T17:17:58.444Z,101001.09
2023-03-29T17:20:01.566Z,100997.28
2023-03-29T17:22:04.355Z,100998.47
2023-03-29T17:24:07.377Z,100990.44
2023-03-29T17:26:12.260Z,100990.88
2023-03-29T17:28:15.465Z,100993.66
2023-03-29T17:30:19.254Z,100991.81
2023-03-29T17:32:21.971Z,100991.75
2023-03-29T17:34:27.088Z,100994.84
2023-03-29T17:36:33.708Z,100998.53
2023-03-29T17:38:38.052Z,100997.59
2023-03-29T17:40:41.269Z,100995.75
2023-03-29T17:42:47.998Z,100996.94
2023-03-29T17:44:51.480Z,100996.13
2023-03-29T17:46:54.490Z,101004.69
2023-03-29T17:48:59.145Z,100995.53
2023-03-29T17:51:02.609Z,100984.97
2023-03-29T17:53:05.571Z,100994.34
2023-03-29T17:55:13.970Z,100993.31
2023-03-29T17:57:16.749Z,100991.44
2023-03-29T17:59:24.061Z,100982.00
2023-03-29T18:01:27.877Z,100984.47
2023-03-29T18:03:31.273Z,100987.59
2023-03-29T18:05:36.409Z,100988.78
2023-03-29T18:07:39.382Z,100995.88
2023-03-29T18:09:43.086Z,100994.75
2023-03-29T18:11:46.108Z,100997.00
2023-03-29T18:13:51.210Z,101002.19
2023-03-29T18:15:59.081Z,101000.56
2023-03-29T18:18:02.074Z,101000.44
2023-03-29T18:20:11.104Z,101004.62
2023-03-29T18:22:18.290Z,101005.94
2023-03-29T18:24:22.078Z,101000.84
2023-03-29T18:26:26.299Z,101003.50
2023-03-29T18:28:34.305Z,101000.34
2023-03-29T18:30:37.054Z,101001.75
2023-03-29T18:32:40.121Z,101001.94
2023-03-29T18:34:43.413Z,101001.91
2023-03-29T18:36:47.950Z,100999.97
2023-03-29T18:38:54.083Z,101006.25
2023-03-29T18:40:59.094Z,101008.00
2023-03-29T18:43:03.201Z,101002.19
2023-03-29T18:45:09.876Z,101014.13
2023-03-29T18:47:13.746Z,101000.22
2023-03-29T18:49:16.968Z,101001.66
2023-03-29T18:51:20.513Z,100995.22
2023-03-29T18:53:24.505Z,100988.91
2023-03-29T18:55:29.335Z,100996.37
2023-03-29T18:57:33.096Z,100999.84
2023-03-29T18:59:36.831Z,101007.72
2023-03-29T19:01:42.161Z,101005.06
2023-03-29T19:03:45.606Z,100996.16
2023-03-29T19:05:55.494Z,100996.00
2023-03-29T19:07:59.151Z,100995.12
2023-03-29T19:10:02.752Z,100991.12
2023-03-29T19:12:06.359Z,100989.78
2023-03-29T19:14:12.165Z,100990.81
2023-03-29T19:16:16.133Z,100998.66
2023-03-29T19:18:20.946Z,100988.72
2023-03-29T19:20:26.023Z,100992.91
2023-03-29T19:22:29.455Z,100995.72
2023-03-29T19:24:33.181Z,100981.03
2023-03-29T19:26:37.126Z,100984.50
2023-03-29T19:28:40.610Z,100981.19
2023-03-29T19:30:44.368Z,100984.75
2023-03-29T19:32:48.879Z,100976.37
2023-03-29T19:34:52.257Z,100982.34
2023-03-29T19:36:55.870Z,100978.91
2023-03-29T19:39:00.499Z,100978.12
2023-03-29T19:41:10.119Z,100980.63
2023-03-29T19:43:16.975Z,100972.91
2023-03-29T19:45:20.597Z,100977.88
2023-03-29T19:47:24.110Z,100976.06
2023-03-29T19:49:28.234Z,100972.63
2023-03-29T19:51:31.996Z,100976.13
2023-03-29T19:53:39.171Z,100969.63
2023-03-29T19:55:45.684Z,100963.13
2023-03-29T19:57:49.309Z,100969.09
2023-03-29T19:59:54.455Z,100975.06
2023-03-29T20:01:57.886Z,100976.22
2023-03-29T20:04:03.059Z,100969.09
2023-03-29T20:06:06.494Z,100968.69
2023-03-29T20:08:09.658Z,100956.59
2023-03-29T20:10:12.823Z,100957.91
2023-03-29T20:12:15.875Z,100968.44
2023-03-29T20:14:18.914Z,100966.28
2023-03-29T20:16:25.724Z,100975.69
2023-03-29T20:18:28.829Z,100971.69
2023-03-29T20:20:35.752Z,100968.56
2023-03-29T20:22:42.356Z,100978.97
2023-03-29T20:24:45.503Z,100962.63
2023-03-29T20:26:48.425Z,100964.94
2023-03-29T20:28:52.373Z,100967.47
2023-03-29T20:30:55.054Z,100969.97
2023-03-29T20:32:57.719Z,100970.41
2023-03-29T20:35:00.558Z,100964.06
2023-03-29T20:37:03.698Z,100966.19
2023-03-29T20:39:06.333Z,100968.41
2023-03-29T20:41:09.411Z,100960.16
2023-03-29T20:43:13.616Z,100954.19
2023-03-29T20:45:18.969Z,100949.84
2023-03-29T20:47:23.353Z,100955.59
2023-03-29T20:49:26.533Z,100948.63
2023-03-29T20:51:30.483Z,100946.28
2023-03-29T20:53:34.395Z,100952.13
2023-03-29T20:55:39.886Z,100951.75
2023-03-29T20:57:42.332Z,100944.91
2023-03-29T20:59:45.917Z,100941.94
2023-03-29T21:01:50.350Z,100942.88
2023-03-29T21:03:53.029Z,100941.75
2023-03-29T21:05:55.671Z,100940.66
2023-03-29T21:07:58.661Z,100944.09
2023-03-29T21:10:01.236Z,100945.78
2023-03-29T21:12:04.028Z,100945.50
2023-03-29T21:14:06.371Z,100945.19
2023-03-29T21:16:09.787Z,100938.50
2023-03-29T21:18:12.496Z,100932.13
2023-03-29T21:20:15.566Z,100925.56
2023-03-29T21:22:18.285Z,100916.22
2023-03-29T21:24:21.093Z,100917.78
2023-03-29T21:26:23.563Z,100919.38
2023-03-29T21:28:26.199Z,100918.56
2023-03-29T21:30:31.371Z,100927.91
2023-03-29T21:32:34.988Z,100922.19
2023-03-29T21:34:37.484Z,100928.72
2023-03-29T21:36:40.388Z,100935.50
2023-03-29T21:38:42.721Z,100926.28
2023-03-29T21:40:45.110Z,100919.13
2023-03-29T21:42:47.709Z,100922.56
2023-03-29T21:44:50.071Z,100914.34
2023-03-29T21:46:52.848Z,100916.88
2023-03-29T21:48:55.471Z,100923.84
2023-03-29T21:50:58.261Z,100920.16
2023-03-29T21:53:01.972Z,100923.34
2023-03-29T21:55:08.423Z,100927.84
2023-03-29T21:57:10.776Z,100929.53
2023-03-29T21:59:13.161Z,100927.03
2023-03-29T22:01:16.332Z,100924.84
2023-03-29T22:03:19.304Z,100932.34
2023-03-29T22:05:22.131Z,100932.59
